Dallas, Texas
Traffic Map
Current Weather Conditions
Dallas, Texas
Few Clouds
Few Clouds
77°
Feels Like: 79°
Wind Chill: 77° Ceiling: Unl
Heat Index: 79° Visibility: 10mi
Dew Point: 70° Wind: 8mph
Humidity: 79% Direction: 150° (SSE)
Pressure: 30.02in Gusts: 0mph
Raw Report DataKDAL 280953Z 15007KT 10SM FEW300 25/21 A3002 RMK AO2 SLP158 T02500211 $
Traffic Incident Summary
Active as of:
Severity:
Category:
InformationThere was an issue retrieving the traffic information for this location. Please try a different location or try again shortly.
Advertisements
Track Severe Weather on mobile